Terminal Aerodrome Forecast
Issued by NWS

Home | Current Version | Previous Version | Text Only | Print | Product List | Glossary On
Versions: 1 2 3 4 5 6 7 8 9 10 11 12 13 14 15 16 17 18 19 20
000
FTUS44 KMAF 301400 AAA
TAFHOB
TAF AMD
KHOB 301411Z 3014/3112 07007KT P6SM -RA OVC050
      TEMPO 3014/3016 -RAPL
     FM301600 08010KT P6SM -RA OVC035
      TEMPO 3016/3019 5SM -RAPL BR OVC025
     FM301900 08010KT P6SM -RA OVC030=

USA.gov is the U.S. government's official web portal to all federal, state and local government web resources and services.